Time;durP1;ratioP1;P1;durP2;ratioP2;P2;SDS_P1;SDS_P2;PMS_P1;PMS_P2;Temp;Humidity;BMP_temperature;BMP_pressure;BME280_temperature;BME280_humidity;BME280_pressure;Samples;Min_cycle;Max_cycle;Signal;HPM_P1;HPM_P2
2024/02/28 00:01:52;;;;;;;9.43;3.88;;;;;;;7.42;79.28;101241.03;5075682;28;20119;-68
2024/02/28 00:04:18;;;;;;;7.78;2.95;;;;;;;7.55;78.68;101245.44;5091607;28;20024;-68
2024/02/28 00:06:46;;;;;;;9.18;3.15;;;;;;;7.48;78.87;101237.06;5092352;28;20078;-68
2024/02/28 00:09:13;;;;;;;5.85;2.88;;;;;;;7.60;77.76;101245.25;5092395;28;20066;-68
2024/02/28 00:11:46;;;;;;;10.23;3.90;;;;;;;7.48;77.53;101253.94;5124312;27;20032;-68
2024/02/28 00:14:12;;;;;;;7.75;3.08;;;;;;;7.40;78.72;101249.38;5090888;28;20043;-68
2024/02/28 00:16:42;;;;;;;7.28;2.92;;;;;;;7.28;79.09;101250.03;5091124;28;20484;-68
2024/02/28 00:19:07;;;;;;;6.80;3.20;;;;;;;7.22;79.09;101245.16;5090036;28;20032;-68
2024/02/28 00:21:33;;;;;;;7.30;3.38;;;;;;;7.13;78.64;101244.38;5076940;28;20067;-68
2024/02/28 00:23:58;;;;;;;6.40;2.85;;;;;;;7.10;78.51;101245.78;5097542;28;20062;-68
2024/02/28 00:26:24;;;;;;;8.13;2.85;;;;;;;7.11;78.24;101242.03;5097149;28;20047;-68
2024/02/28 00:28:49;;;;;;;5.40;2.55;;;;;;;7.04;79.24;101247.09;5095757;28;20081;-68
2024/02/28 00:31:15;;;;;;;5.53;3.40;;;;;;;6.88;79.44;101237.94;5095287;28;20433;-68
2024/02/28 00:33:40;;;;;;;5.82;3.08;;;;;;;7.01;78.97;101234.31;5095760;28;20036;-68
2024/02/28 00:36:06;;;;;;;7.43;3.42;;;;;;;6.96;78.58;101241.72;5130106;27;20391;-68
2024/02/28 00:38:31;;;;;;;12.30;3.80;;;;;;;6.94;79.02;101243.91;5089622;28;20035;-68
2024/02/28 00:40:57;;;;;;;5.30;2.70;;;;;;;7.09;78.46;101236.19;5095393;28;20082;-68
2024/02/28 00:43:23;;;;;;;9.05;3.28;;;;;;;7.13;77.17;101237.13;5095755;28;20032;-68
2024/02/28 00:45:48;;;;;;;9.10;3.28;;;;;;;7.08;77.53;101236.53;5097124;28;20497;-68
2024/02/28 00:48:14;;;;;;;6.68;3.80;;;;;;;7.12;77.26;101238.22;5094694;28;20032;-68
2024/02/28 00:50:39;;;;;;;4.75;2.90;;;;;;;7.12;76.19;101238.22;5091900;28;20024;-68
2024/02/28 00:53:05;;;;;;;9.48;3.55;;;;;;;7.02;76.96;101229.75;5096412;28;20032;-68
2024/02/28 00:55:30;;;;;;;7.45;3.47;;;;;;;6.99;77.50;101225.81;5098915;28;20590;-68
2024/02/28 00:57:55;;;;;;;8.27;3.55;;;;;;;7.10;76.77;101210.97;5094442;28;20028;-68
2024/02/28 01:00:21;;;;;;;7.25;2.80;;;;;;;7.15;76.52;101221.53;5097755;28;20054;-68
2024/02/28 01:02:46;;;;;;;7.75;3.10;;;;;;;7.14;76.58;101219.94;5095926;28;20042;-68
2024/02/28 01:05:12;;;;;;;7.95;3.28;;;;;;;7.14;76.98;101219.94;5089313;28;20373;-68
2024/02/28 01:07:37;;;;;;;9.02;3.45;;;;;;;7.01;77.09;101220.13;5079295;28;20046;-68
2024/02/28 01:10:04;;;;;;;8.45;3.70;;;;;;;7.04;77.01;101228.34;5094286;28;20036;-68
2024/02/28 01:12:29;;;;;;;7.07;2.92;;;;;;;7.03;77.11;101229.44;5095883;28;20036;-68
2024/02/28 01:14:55;;;;;;;10.32;3.20;;;;;;;7.13;76.15;101221.06;5097256;28;20400;-68
2024/02/28 01:17:23;;;;;;;9.98;3.33;;;;;;;7.00;75.73;101215.88;5096008;28;20047;-68
2024/02/28 01:19:48;;;;;;;9.68;3.67;;;;;;;6.87;76.31;101220.28;5095843;28;20059;-68
2024/02/28 01:22:14;;;;;;;5.72;3.38;;;;;;;6.74;77.59;101229.28;5094857;28;20051;-68
2024/02/28 01:24:39;;;;;;;4.97;3.08;;;;;;;6.59;79.37;101218.25;5092724;28;20479;-68
2024/02/28 01:27:10;;;;;;;7.13;3.45;;;;;;;6.60;78.96;101217.94;5095465;28;20077;-68
2024/02/28 01:29:36;;;;;;;5.68;3.28;;;;;;;6.85;77.40;101224.41;5098271;28;20043;-68
2024/02/28 01:32:01;;;;;;;4.38;2.65;;;;;;;6.96;76.27;101218.41;5093836;28;20054;-68
2024/02/28 01:34:27;;;;;;;4.80;2.78;;;;;;;6.92;76.90;101220.16;5093171;28;20035;-68
2024/02/28 01:36:52;;;;;;;6.00;3.03;;;;;;;6.95;76.96;101219.50;5097185;28;20088;-68
2024/02/28 01:39:17;;;;;;;8.68;3.90;;;;;;;6.82;77.10;101217.78;5093912;28;20032;-68
2024/02/28 01:41:51;;;;;;;7.60;3.53;;;;;;;6.75;76.83;101209.47;5077663;28;20031;-68
2024/02/28 01:44:16;;;;;;;6.95;3.83;;;;;;;6.60;78.44;101219.84;5092880;28;20031;-68
2024/02/28 01:46:42;;;;;;;6.72;3.22;;;;;;;6.74;78.80;101207.88;5095667;28;20035;-68
2024/02/28 01:49:08;;;;;;;8.88;4.30;;;;;;;6.86;77.75;101201.88;5093950;28;20040;-68
2024/02/28 01:51:34;;;;;;;6.18;3.28;;;;;;;6.93;76.63;101202.97;5092175;28;20016;-68
2024/02/28 01:53:59;;;;;;;10.13;4.05;;;;;;;6.94;76.50;101201.09;5094455;28;20044;-68
2024/02/28 01:56:26;;;;;;;9.90;4.50;;;;;;;6.90;76.73;101206.28;5129890;27;20040;-68
2024/02/28 01:58:53;;;;;;;8.38;3.55;;;;;;;6.91;75.93;101199.81;5095535;28;20058;-69
2024/02/28 02:01:18;;;;;;;9.05;4.50;;;;;;;6.93;75.37;101205.66;5095198;28;20115;-68
2024/02/28 02:03:49;;;;;;;;;;;;;;;6.76;76.49;101202.19;5094857;28;20036;-68
2024/02/28 02:06:15;;;;;;;7.80;4.05;;;;;;;6.66;76.77;101199.84;5095967;28;19920;-68
2024/02/28 02:08:41;;;;;;;13.15;4.57;;;;;;;6.72;76.53;101204.72;5096672;28;20400;-68
2024/02/28 02:11:06;;;;;;;9.00;4.25;;;;;;;6.73;76.50;101200.94;5095150;28;21224;-68
2024/02/28 02:13:32;;;;;;;10.50;5.28;;;;;;;6.58;76.43;101185.34;5097164;28;20035;-68
2024/02/28 02:15:58;;;;;;;10.82;4.50;;;;;;;6.48;77.50;101199.06;5094590;28;20176;-68
2024/02/28 02:18:23;;;;;;;11.73;4.97;;;;;;;6.60;77.20;101196.53;5097492;28;20059;-68
2024/02/28 02:21:04;;;;;;;9.27;4.70;;;;;;;6.60;77.46;101209.91;5087115;28;20039;-68
2024/02/28 02:23:30;;;;;;;10.50;4.80;;;;;;;6.47;77.66;101208.16;5095194;28;20579;-68
2024/02/28 02:25:56;;;;;;;10.27;4.55;;;;;;;6.65;76.40;101204.41;5094295;28;20110;-68
2024/02/28 02:28:22;;;;;;;8.15;4.35;;;;;;;6.63;77.52;101208.50;5091077;28;20085;-68
2024/02/28 02:30:48;;;;;;;9.68;4.25;;;;;;;6.68;77.14;101198.41;5094073;28;20020;-68
2024/02/28 02:33:14;;;;;;;8.63;4.45;;;;;;;6.71;76.46;101207.72;5095369;28;20140;-68
2024/02/28 02:35:39;;;;;;;8.77;4.45;;;;;;;6.54;77.90;101216.53;5090585;28;20048;-68
2024/02/28 02:38:05;;;;;;;10.82;5.13;;;;;;;6.50;77.37;101212.91;5097040;28;20039;-68
2024/02/28 02:40:30;;;;;;;10.90;4.93;;;;;;;6.34;78.56;101214.44;5093196;28;20051;-69
2024/02/28 02:42:56;;;;;;;9.68;3.67;;;;;;;6.30;79.54;101213.50;5092134;28;20451;-68
2024/02/28 02:45:21;;;;;;;14.02;5.05;;;;;;;6.53;78.94;101217.63;5094009;28;20036;-68
2024/02/28 02:47:46;;;;;;;11.02;5.72;;;;;;;6.68;77.54;101229.75;5090326;28;20028;-68
2024/02/28 02:50:12;;;;;;;7.80;3.92;;;;;;;6.53;77.75;101228.31;5095750;28;20031;-68
2024/02/28 02:52:38;;;;;;;10.05;4.97;;;;;;;6.50;77.97;101231.63;5093806;28;20020;-68
2024/02/28 02:55:04;;;;;;;12.13;4.85;;;;;;;6.63;76.99;101227.22;5093058;28;20088;-68
2024/02/28 02:57:33;;;;;;;14.15;4.82;;;;;;;6.53;76.94;101225.63;5075998;28;20036;-68
2024/02/28 02:59:58;;;;;;;9.52;4.00;;;;;;;6.60;77.00;101225.19;5095215;28;20042;-68
2024/02/28 03:02:24;;;;;;;9.35;4.28;;;;;;;6.65;76.34;101228.50;5093639;28;20489;-68
2024/02/28 03:04:50;;;;;;;13.18;5.43;;;;;;;6.57;77.47;101233.81;5093366;28;20032;-68
2024/02/28 03:07:15;;;;;;;9.00;4.15;;;;;;;6.45;77.93;101236.31;5094716;28;20055;-68
2024/02/28 03:09:41;;;;;;;17.30;4.80;;;;;;;6.56;77.98;101224.22;5095645;28;20028;-68
2024/02/28 03:12:07;;;;;;;12.77;4.50;;;;;;;6.56;77.80;101222.34;5092884;28;20472;-68
2024/02/28 03:14:32;;;;;;;14.52;4.85;;;;;;;6.52;77.23;101216.06;5092637;28;20066;-68
2024/02/28 03:16:58;;;;;;;11.30;5.30;;;;;;;6.59;77.15;101227.06;5090516;28;20164;-68
2024/02/28 03:19:23;;;;;;;12.68;4.20;;;;;;;6.61;77.25;101229.41;5097835;28;20032;-68
2024/02/28 03:21:49;;;;;;;11.55;5.40;;;;;;;6.56;77.28;101230.38;5090559;28;20030;-68
2024/02/28 03:24:14;;;;;;;11.60;5.57;;;;;;;6.55;77.88;101231.47;5090313;28;20043;-69
2024/02/28 03:26:40;;;;;;;10.10;4.32;;;;;;;6.45;77.62;101226.41;5093770;28;20031;-68
2024/02/28 03:29:05;;;;;;;11.35;5.50;;;;;;;6.39;78.30;101235.69;5093917;28;20081;-68
2024/02/28 03:31:30;;;;;;;9.40;4.47;;;;;;;6.49;78.35;101239.94;5093342;28;20111;-68
2024/02/28 03:33:56;;;;;;;12.10;4.28;;;;;;;6.61;77.16;101235.56;5100853;28;20036;-68
2024/02/28 03:36:21;;;;;;;9.00;4.00;;;;;;;6.64;76.70;101229.56;5095424;28;20016;-68
2024/02/28 03:38:47;;;;;;;14.60;5.13;;;;;;;6.49;77.28;101234.59;5092239;28;20030;-68
2024/02/28 03:41:12;;;;;;;12.43;4.32;;;;;;;6.45;78.25;101239.78;5094346;28;20092;-68
2024/02/28 03:43:38;;;;;;;11.52;4.60;;;;;;;6.42;78.60;101232.41;5093459;28;20028;-68
2024/02/28 03:46:03;;;;;;;12.75;5.10;;;;;;;6.45;78.61;101239.78;5094679;28;20059;-68
2024/02/28 03:48:29;;;;;;;11.13;4.80;;;;;;;6.57;77.97;101231.94;5093348;28;20074;-68
2024/02/28 03:50:54;;;;;;;19.95;5.20;;;;;;;6.51;78.49;101238.53;5094795;28;20150;-68
2024/02/28 03:53:19;;;;;;;10.18;5.63;;;;;;;6.55;78.41;101231.47;5096452;28;20129;-68
2024/02/28 03:55:45;;;;;;;11.73;4.38;;;;;;;6.62;77.50;101239.03;5088825;28;20051;-68
2024/02/28 03:58:11;;;;;;;11.73;5.20;;;;;;;6.63;77.91;101238.72;5095310;28;20031;-69
2024/02/28 04:00:37;;;;;;;10.57;4.88;;;;;;;6.49;78.58;101240.75;5097786;28;20400;-68
2024/02/28 04:03:04;;;;;;;12.65;4.45;;;;;;;6.51;78.44;101235.06;5100511;28;20028;-68
2024/02/28 04:05:29;;;;;;;9.20;3.72;;;;;;;6.49;78.62;101242.63;5098524;28;20170;-68
2024/02/28 04:07:55;;;;;;;9.27;3.90;;;;;;;6.51;78.81;101235.88;5097701;28;20114;-68
2024/02/28 04:10:21;;;;;;;12.50;4.50;;;;;;;6.58;78.45;101240.75;5093126;28;20031;-68
2024/02/28 04:12:47;;;;;;;13.07;5.07;;;;;;;6.67;77.78;101233.53;5098274;28;20028;-68
2024/02/28 04:15:13;;;;;;;14.43;4.95;;;;;;;6.78;76.41;101232.09;5102894;28;20043;-68
2024/02/28 04:17:39;;;;;;;13.43;3.97;;;;;;;6.60;78.09;101225.94;5094732;28;20036;-68
2024/02/28 04:20:13;;;;;;;13.85;4.28;;;;;;;6.69;77.45;101221.41;5100569;28;20449;-68
2024/02/28 04:22:39;;;;;;;10.95;4.50;;;;;;;6.71;77.14;101223.75;5096187;28;20434;-68
2024/02/28 04:25:07;;;;;;;10.38;4.35;;;;;;;6.76;77.51;101215.56;5097350;28;20111;-69
2024/02/28 04:27:32;;;;;;;9.40;4.50;;;;;;;6.78;76.79;101208.81;5096500;28;20039;-68
2024/02/28 04:29:58;;;;;;;10.07;4.70;;;;;;;6.71;77.49;101221.88;5095374;28;20392;-69
2024/02/28 04:32:24;;;;;;;10.45;4.65;;;;;;;6.70;78.18;101214.16;5100157;28;20386;-68
2024/02/28 04:34:49;;;;;;;9.55;4.15;;;;;;;6.82;76.40;101217.78;5096967;28;20035;-68
2024/02/28 04:37:14;;;;;;;8.52;4.10;;;;;;;6.85;76.29;101209.13;5097543;28;20050;-68
2024/02/28 04:39:40;;;;;;;10.80;3.92;;;;;;;6.69;76.82;101224.09;5096103;28;20040;-68
2024/02/28 04:42:05;;;;;;;10.23;4.20;;;;;;;6.64;76.85;101226.13;5095763;28;20070;-68
2024/02/28 04:44:31;;;;;;;11.95;4.47;;;;;;;6.69;76.60;101224.09;5096611;28;20036;-68
2024/02/28 04:46:57;;;;;;;16.52;4.43;;;;;;;6.63;77.63;101229.91;5099943;28;20032;-68
2024/02/28 04:49:23;;;;;;;13.65;4.97;;;;;;;6.66;77.63;101219.34;5092258;28;20027;-68
2024/02/28 04:51:48;;;;;;;12.65;5.22;;;;;;;6.67;77.00;101226.28;5101484;28;20028;-68
2024/02/28 04:54:14;;;;;;;12.68;4.60;;;;;;;6.66;77.92;101231.97;5099184;28;20035;-68
2024/02/28 04:56:43;;;;;;;7.40;3.15;;;;;;;6.62;77.89;101231.78;5096892;28;20042;-68
2024/02/28 04:59:10;;;;;;;11.68;5.07;;;;;;;6.74;77.53;101239.97;5096935;28;20450;-68
2024/02/28 05:01:38;;;;;;;11.18;5.60;;;;;;;6.68;77.63;101243.91;5076770;28;20028;-70
2024/02/28 05:04:08;;;;;;;10.88;4.78;;;;;;;6.61;77.92;101237.44;5096016;28;20024;-68
2024/02/28 05:06:33;;;;;;;12.18;4.25;;;;;;;6.58;78.17;101244.19;5093944;28;20669;-69
2024/02/28 05:08:59;;;;;;;9.75;4.38;;;;;;;6.56;77.92;101241.09;5094652;28;20119;-68
2024/02/28 05:11:25;;;;;;;10.38;5.10;;;;;;;6.68;77.87;101245.81;5093750;28;20090;-68
2024/02/28 05:13:50;;;;;;;10.80;4.95;;;;;;;6.50;77.97;101246.88;5094515;28;20039;-68
2024/02/28 05:16:16;;;;;;;10.15;4.03;;;;;;;6.56;78.61;101238.41;5094852;28;20526;-68
2024/02/28 05:18:44;;;;;;;10.63;4.60;;;;;;;6.65;77.72;101236.53;5088551;28;20032;-68
2024/02/28 05:21:10;;;;;;;8.85;4.30;;;;;;;6.61;77.97;101235.56;5089021;28;20119;-68
2024/02/28 05:23:35;;;;;;;7.65;4.30;;;;;;;6.64;77.36;101244.88;5076458;28;20946;-68
2024/02/28 05:26:03;;;;;;;11.15;5.15;;;;;;;6.61;77.50;101242.81;5094046;28;20040;-68
2024/02/28 05:28:34;;;;;;;8.38;4.05;;;;;;;6.54;78.77;101243.28;5089467;28;20115;-68
2024/02/28 05:31:10;;;;;;;12.27;4.80;;;;;;;6.56;78.92;101249.09;5093969;28;20036;-68
2024/02/28 05:33:35;;;;;;;6.40;3.45;;;;;;;6.45;79.44;101242.47;5091383;28;20048;-68
2024/02/28 05:36:00;;;;;;;16.58;4.05;;;;;;;6.36;79.74;101237.13;5093413;28;20040;-69
2024/02/28 05:38:26;;;;;;;12.68;5.13;;;;;;;6.44;79.10;101246.25;5091526;28;20039;-68
2024/02/28 05:40:51;;;;;;;9.60;3.90;;;;;;;6.43;79.59;101255.34;5094773;28;20557;-68
2024/02/28 05:43:17;;;;;;;11.27;4.90;;;;;;;6.43;79.88;101258.03;5087899;28;20104;-68
2024/02/28 05:45:42;;;;;;;7.40;3.50;;;;;;;6.38;80.35;101255.50;5093438;28;20023;-68
2024/02/28 05:48:08;;;;;;;8.77;4.15;;;;;;;6.36;80.06;101258.50;5091459;28;20027;-68
2024/02/28 05:50:33;;;;;;;9.23;4.22;;;;;;;6.31;80.14;101257.84;5092654;28;20489;-68
2024/02/28 05:52:59;;;;;;;10.98;5.13;;;;;;;6.23;80.81;101262.06;5089486;28;20028;-68
2024/02/28 05:55:26;;;;;;;8.88;3.50;;;;;;;6.21;81.05;101256.25;5092796;28;20099;-68
2024/02/28 05:57:51;;;;;;;8.52;3.42;;;;;;;6.20;81.08;101269.94;5088712;28;20056;-68
2024/02/28 06:00:17;;;;;;;10.05;3.33;;;;;;;6.20;80.98;101254.69;5099614;27;20066;-68
2024/02/28 06:02:42;;;;;;;7.00;3.63;;;;;;;6.15;80.98;101262.84;5087537;28;20514;-68
2024/02/28 06:05:08;;;;;;;8.18;3.60;;;;;;;6.24;80.70;101262.88;5089080;28;20032;-68
2024/02/28 06:07:33;;;;;;;7.70;3.53;;;;;;;6.20;80.75;101267.25;5091580;28;20110;-68
2024/02/28 06:09:59;;;;;;;7.85;2.80;;;;;;;6.20;81.11;101269.94;5087604;28;20493;-68
2024/02/28 06:12:25;;;;;;;8.55;4.25;;;;;;;6.23;80.75;101270.09;5096570;28;20059;-68
2024/02/28 06:14:50;;;;;;;11.15;3.92;;;;;;;6.14;81.21;101276.50;5092237;28;20584;-68
2024/02/28 06:17:16;;;;;;;7.20;3.92;;;;;;;6.21;80.72;101266.16;5089086;28;20047;-68
2024/02/28 06:19:41;;;;;;;5.85;2.95;;;;;;;6.14;81.58;101273.84;5089680;28;20029;-68
2024/02/28 06:22:07;;;;;;;5.35;3.08;;;;;;;6.17;81.57;101275.91;5088119;28;20123;-68
2024/02/28 06:24:35;;;;;;;8.68;3.20;;;;;;;6.17;81.18;101274.03;5086701;28;20019;-68
2024/02/28 06:27:02;;;;;;;5.75;3.35;;;;;;;6.14;81.07;101269.28;5081890;28;20501;-68
2024/02/28 06:29:27;;;;;;;8.90;3.35;;;;;;;6.13;82.01;101277.63;5073055;28;20024;-68
2024/02/28 06:31:53;;;;;;;7.00;2.75;;;;;;;6.14;82.13;101282.66;5090084;28;20487;-68
2024/02/28 06:34:18;;;;;;;8.20;3.70;;;;;;;6.28;81.14;101285.22;5089800;28;20123;-68
2024/02/28 06:36:44;;;;;;;6.47;3.53;;;;;;;6.19;81.73;101282.50;5093295;28;20058;-68
2024/02/28 06:39:10;;;;;;;7.43;4.05;;;;;;;6.21;81.77;101282.22;5074588;28;20655;-69
2024/02/28 06:41:35;;;;;;;8.82;4.05;;;;;;;6.31;81.28;101301.41;5092747;28;20493;-68
2024/02/28 06:44:01;;;;;;;8.90;3.58;;;;;;;6.28;81.26;101295.91;5089247;28;20036;-68
2024/02/28 06:46:26;;;;;;;13.32;3.95;;;;;;;6.31;80.79;101305.97;5097319;28;20698;-68
2024/02/28 06:48:52;;;;;;;9.75;4.35;;;;;;;6.40;80.52;101314.84;5091090;28;20113;-68
2024/02/28 06:51:17;;;;;;;8.65;3.72;;;;;;;6.28;82.11;101306.59;5094766;28;20035;-68
2024/02/28 06:53:43;;;;;;;9.02;3.03;;;;;;;6.40;81.35;101309.47;5093367;28;20548;-68
2024/02/28 06:56:09;;;;;;;4.88;3.67;;;;;;;6.52;79.82;101311.56;5086304;28;20034;-68
2024/02/28 06:58:34;;;;;;;6.50;3.53;;;;;;;6.44;80.29;101315.78;5082218;28;20032;-68
2024/02/28 07:01:00;;;;;;;10.43;3.13;;;;;;;6.33;81.18;101307.25;5092038;28;20028;-68
2024/02/28 07:03:25;;;;;;;7.25;3.60;;;;;;;6.34;80.99;101308.06;5093499;28;20027;-68
2024/02/28 07:05:51;;;;;;;9.32;3.45;;;;;;;6.28;81.70;101322.66;5089746;28;20032;-68
2024/02/28 07:08:17;;;;;;;7.13;3.78;;;;;;;6.35;81.45;101322.97;5089866;28;20489;-68
2024/02/28 07:10:43;;;;;;;7.28;3.70;;;;;;;6.44;81.05;101317.66;5086453;28;20039;-68
2024/02/28 07:13:10;;;;;;;5.90;2.95;;;;;;;6.50;80.51;101314.56;5127583;27;20167;-68
2024/02/28 07:15:36;;;;;;;5.95;3.25;;;;;;;6.30;82.00;101326.59;5087391;28;20114;-68
2024/02/28 07:18:01;;;;;;;8.55;3.33;;;;;;;6.41;81.57;101326.34;5092786;28;20119;-68
2024/02/28 07:20:27;;;;;;;10.45;3.10;;;;;;;6.51;80.28;101326.81;5088307;28;20627;-68
2024/02/28 07:22:52;;;;;;;6.97;3.00;;;;;;;6.43;81.08;101337.50;5090050;28;20035;-68
2024/02/28 07:25:17;;;;;;;7.60;3.55;;;;;;;6.52;80.76;101341.00;5087299;28;20028;-68
2024/02/28 07:27:43;;;;;;;11.82;4.18;;;;;;;6.55;80.13;101332.34;5089822;28;20428;-68
2024/02/28 07:30:09;;;;;;;11.70;3.55;;;;;;;6.36;81.61;101341.41;5091691;28;20036;-68
2024/02/28 07:32:34;;;;;;;6.65;2.83;;;;;;;6.42;81.35;101335.91;5088055;28;20442;-68
2024/02/28 07:35:01;;;;;;;6.18;3.33;;;;;;;6.48;81.23;101332.81;5092084;28;20508;-68
2024/02/28 07:37:26;;;;;;;2.00;1.77;;;;;;;6.45;81.01;101338.75;5075171;28;20029;-68
2024/02/28 07:39:52;;;;;;;10.52;4.40;;;;;;;6.48;80.95;101326.66;5098673;28;20084;-68
2024/02/28 07:42:17;;;;;;;3.22;2.08;;;;;;;6.52;80.93;101322.25;5089556;28;20024;-68
2024/02/28 07:44:43;;;;;;;10.73;3.65;;;;;;;6.51;80.25;101331.38;5100233;28;20035;-68
2024/02/28 07:47:08;;;;;;;9.20;3.67;;;;;;;6.45;81.61;101340.63;5089240;28;20048;-68
2024/02/28 07:49:34;;;;;;;4.63;2.58;;;;;;;6.50;81.18;101335.16;5090203;28;20043;-68
2024/02/28 07:51:59;;;;;;;8.00;3.75;;;;;;;6.50;80.85;101335.16;5084898;28;20028;-68
2024/02/28 07:54:25;;;;;;;8.73;3.13;;;;;;;6.52;80.97;101335.63;5091016;28;20031;-68
2024/02/28 07:56:50;;;;;;;8.20;2.88;;;;;;;6.57;81.15;101333.59;5087804;28;20020;-68
2024/02/28 07:59:16;;;;;;;4.45;2.63;;;;;;;6.61;81.86;101334.56;5091048;28;20127;-68
2024/02/28 08:01:41;;;;;;;4.82;2.80;;;;;;;6.75;80.68;101334.44;5084741;28;20029;-68
2024/02/28 08:04:07;;;;;;;7.60;3.58;;;;;;;6.75;80.57;101329.09;5086073;28;20024;-68
2024/02/28 08:06:33;;;;;;;5.82;2.70;;;;;;;6.82;79.83;101342.78;5084984;28;20024;-68
2024/02/28 08:08:58;;;;;;;7.90;3.47;;;;;;;6.90;79.13;101345.50;5087142;28;20369;-68
2024/02/28 08:11:24;;;;;;;9.38;3.33;;;;;;;6.85;79.74;101332.25;5095059;28;20030;-68
2024/02/28 08:13:51;;;;;;;5.18;2.65;;;;;;;6.81;80.59;101330.53;5089063;28;20028;-68
2024/02/28 08:16:16;;;;;;;7.65;3.33;;;;;;;6.77;79.62;101330.34;5083853;28;20103;-68
2024/02/28 08:18:42;;;;;;;5.70;3.25;;;;;;;6.78;80.54;101339.94;5090849;28;20154;-68
2024/02/28 08:21:08;;;;;;;5.35;2.75;;;;;;;6.82;80.90;101348.13;5094860;28;20027;-68
2024/02/28 08:23:34;;;;;;;15.13;3.50;;;;;;;6.93;81.30;101344.09;5087978;28;20517;-68
2024/02/28 08:25:59;;;;;;;6.68;3.75;;;;;;;7.12;80.74;101350.69;5089856;28;20039;-67
2024/02/28 08:28:25;;;;;;;5.38;3.08;;;;;;;7.20;80.21;101349.16;5097276;28;20028;-68
2024/02/28 08:30:50;;;;;;;6.13;2.85;;;;;;;7.30;80.00;101352.28;5082566;28;20024;-68
2024/02/28 08:33:16;;;;;;;6.35;3.10;;;;;;;7.42;78.77;101346.31;5092003;28;20115;-68
2024/02/28 08:35:42;;;;;;;6.32;3.45;;;;;;;7.43;78.49;101349.78;5095096;28;20156;-68
2024/02/28 08:38:08;;;;;;;10.65;2.92;;;;;;;7.39;78.76;101370.25;5088707;28;20157;-68
2024/02/28 08:40:33;;;;;;;6.10;3.13;;;;;;;7.34;79.40;101367.75;5087259;28;20459;-68
2024/02/28 08:42:59;;;;;;;6.22;2.97;;;;;;;7.48;77.81;101363.00;5092138;28;20390;-68
2024/02/28 08:45:24;;;;;;;7.25;3.72;;;;;;;7.49;78.21;101362.69;5095971;28;20031;-68
2024/02/28 08:47:50;;;;;;;8.18;3.30;;;;;;;7.32;78.98;101366.16;5095873;28;20477;-68
2024/02/28 08:50:15;;;;;;;9.15;3.67;;;;;;;7.28;79.64;101365.22;5091964;28;20027;-69
2024/02/28 08:52:41;;;;;;;15.07;4.35;;;;;;;7.47;79.46;101364.13;5090796;28;20381;-68
2024/02/28 08:55:06;;;;;;;9.38;3.53;;;;;;;7.44;79.07;101359.38;5090245;28;20108;-68
2024/02/28 08:57:32;;;;;;;10.13;3.67;;;;;;;7.54;79.47;101359.06;5092328;28;20027;-68
2024/02/28 08:59:57;;;;;;;12.70;4.05;;;;;;;7.74;78.97;101363.78;5091821;28;20481;-68
2024/02/28 09:02:23;;;;;;;7.35;3.53;;;;;;;7.84;78.95;101364.22;5088236;28;20032;-68
2024/02/28 09:04:51;;;;;;;10.60;3.95;;;;;;;7.94;78.72;101363.88;5089823;28;20519;-68
2024/02/28 09:07:21;;;;;;;8.70;3.33;;;;;;;8.25;78.36;101363.66;5087619;28;20058;-68
2024/02/28 09:09:46;;;;;;;6.90;3.60;;;;;;;8.43;77.96;101367.06;5092839;28;20020;-68
2024/02/28 09:12:13;;;;;;;12.15;4.45;;;;;;;8.48;77.23;101362.31;5095427;28;20055;-68
2024/02/28 09:14:38;;;;;;;9.40;4.63;;;;;;;8.66;76.23;101363.81;5090400;28;20035;-67
2024/02/28 09:17:04;;;;;;;9.20;4.40;;;;;;;8.80;75.50;101369.75;5092986;28;20028;-68
2024/02/28 09:19:32;;;;;;;13.02;4.63;;;;;;;8.87;75.39;101370.00;5085530;28;20107;-68
2024/02/28 09:21:58;;;;;;;11.05;4.05;;;;;;;9.06;74.55;101375.72;5087656;28;20032;-68
2024/02/28 09:24:24;;;;;;;11.25;5.05;;;;;;;9.15;73.77;101369.50;5090576;28;20038;-68
2024/02/28 09:26:50;;;;;;;11.43;5.05;;;;;;;9.37;73.19;101371.88;5090009;28;20123;-68
2024/02/28 09:29:15;;;;;;;14.00;4.07;;;;;;;9.45;73.29;101374.50;5094594;28;20433;-68
2024/02/28 09:31:41;;;;;;;10.75;3.70;;;;;;;9.50;73.20;101373.50;5092183;28;20103;-68
2024/02/28 09:34:09;;;;;;;11.70;4.57;;;;;;;9.62;71.82;101378.94;5092748;28;20024;-68
2024/02/28 09:36:42;;;;;;;9.10;4.13;;;;;;;9.48;73.19;101381.91;5088346;28;20035;-68
2024/02/28 09:39:08;;;;;;;14.30;5.80;;;;;;;9.63;72.62;101384.00;5090268;28;20062;-68
2024/02/28 09:41:33;;;;;;;12.35;4.22;;;;;;;9.82;73.01;101386.97;5088442;28;20032;-68
2024/02/28 09:44:00;;;;;;;12.45;4.28;;;;;;;9.94;71.46;101386.22;5103775;28;20036;-68
2024/02/28 09:46:25;;;;;;;12.57;4.85;;;;;;;10.06;70.58;101386.28;5090492;28;20455;-68
2024/02/28 09:48:53;;;;;;;11.30;4.57;;;;;;;10.09;70.53;101388.28;5091249;28;20052;-68
2024/02/28 09:51:21;;;;;;;14.68;5.13;;;;;;;9.88;71.70;101401.00;5092161;28;20392;-68
2024/02/28 09:53:47;;;;;;;16.45;5.30;;;;;;;10.03;71.28;101393.09;5093538;28;20055;-68
2024/02/28 09:56:12;;;;;;;9.52;4.22;;;;;;;9.98;72.11;101384.44;5088597;28;20043;-68
2024/02/28 09:58:39;;;;;;;12.18;4.43;;;;;;;10.09;71.60;101387.50;5089397;28;20093;-68
2024/02/28 10:01:09;;;;;;;12.45;4.95;;;;;;;9.97;71.33;101385.56;5090976;28;20026;-68
2024/02/28 10:03:36;;;;;;;8.98;4.03;;;;;;;10.18;69.93;101380.91;5090196;28;20111;-68
2024/02/28 10:06:02;;;;;;;12.35;5.38;;;;;;;10.12;70.15;101376.09;5091306;28;20027;-68
2024/02/28 10:08:29;;;;;;;13.75;4.85;;;;;;;10.13;70.50;101375.75;5086294;28;20043;-68
2024/02/28 10:10:55;;;;;;;15.02;5.63;;;;;;;10.11;71.00;101366.44;5090300;28;20020;-68
2024/02/28 10:13:21;;;;;;;11.13;4.55;;;;;;;10.11;71.00;101366.44;5090535;28;20032;-68
2024/02/28 10:15:50;;;;;;;15.98;5.38;;;;;;;10.38;69.92;101373.88;5108682;27;20027;-67
2024/02/28 10:18:16;;;;;;;11.68;5.05;;;;;;;10.39;69.89;101388.94;5086898;28;20418;-67
2024/02/28 10:20:41;;;;;;;13.05;5.07;;;;;;;10.45;69.20;101388.38;5090193;28;20012;-68
2024/02/28 10:23:10;;;;;;;14.45;4.32;;;;;;;10.51;68.92;101391.66;5089436;28;20492;-68
2024/02/28 10:25:46;;;;;;;11.43;4.80;;;;;;;10.60;67.43;101387.72;5088667;28;20501;-68
2024/02/28 10:28:15;;;;;;;16.33;5.13;;;;;;;10.46;69.26;101391.84;5090764;28;20039;-67
2024/02/28 10:30:43;;;;;;;9.95;4.35;;;;;;;10.42;69.31;101399.03;5092239;28;20066;-68
2024/02/28 10:33:15;;;;;;;9.02;4.13;;;;;;;10.49;69.46;101401.97;5088287;28;20020;-67
2024/02/28 10:35:44;;;;;;;17.27;5.43;;;;;;;10.60;67.79;101406.56;5074372;28;20040;-67
2024/02/28 10:38:11;;;;;;;11.55;4.57;;;;;;;10.44;69.61;101396.78;5090578;28;20081;-68
2024/02/28 10:40:37;;;;;;;11.05;5.03;;;;;;;10.48;69.65;101393.09;5075062;28;20016;-67
2024/02/28 10:43:04;;;;;;;13.00;4.88;;;;;;;10.42;69.54;101405.19;5089467;28;20028;-68
2024/02/28 10:45:36;;;;;;;9.00;4.50;;;;;;;10.20;70.65;101397.53;5094471;28;20028;-68
2024/02/28 10:48:03;;;;;;;10.70;4.72;;;;;;;10.18;71.34;101413.22;5101029;28;20042;-68
2024/02/28 10:50:29;;;;;;;17.25;5.60;;;;;;;10.12;72.13;101406.50;5090801;28;20378;-67
2024/02/28 10:53:00;;;;;;;13.20;4.88;;;;;;;10.25;70.64;101415.38;5089497;28;20032;-68
2024/02/28 10:55:32;;;;;;;15.00;4.40;;;;;;;10.25;69.75;101415.38;5089819;28;20036;-67
2024/02/28 10:58:03;;;;;;;11.27;4.43;;;;;;;10.18;71.11;101418.59;5089931;28;20033;-68
2024/02/28 11:00:29;;;;;;;11.45;4.93;;;;;;;10.27;71.40;101422.00;5093437;28;20038;-67
2024/02/28 11:02:56;;;;;;;14.45;5.18;;;;;;;10.47;71.91;101412.28;5083252;28;20390;-68
2024/02/28 11:05:22;;;;;;;11.75;4.80;;;;;;;10.50;72.04;101403.53;5089436;28;20111;-68
2024/02/28 11:07:51;;;;;;;11.70;4.85;;;;;;;10.61;71.38;101405.44;5074020;28;20107;-68
2024/02/28 11:10:17;;;;;;;12.77;5.35;;;;;;;10.55;71.17;101406.78;5090379;28;20067;-67
2024/02/28 11:12:43;;;;;;;11.30;5.20;;;;;;;10.64;70.98;101402.09;5092136;28;20059;-67
2024/02/28 11:15:17;;;;;;;11.50;4.65;;;;;;;10.86;70.84;101398.94;5091661;28;20071;-68
2024/02/28 11:17:42;;;;;;;11.32;4.30;;;;;;;10.97;69.71;101398.47;5090594;28;20036;-67
2024/02/28 11:20:12;;;;;;;16.25;5.78;;;;;;;10.87;69.55;101408.59;5087469;28;20035;-67
2024/02/28 11:22:39;;;;;;;10.40;4.63;;;;;;;10.93;69.03;101400.28;5086806;28;20039;-68
2024/02/28 11:25:05;;;;;;;12.27;4.63;;;;;;;11.00;68.29;101400.47;5092228;28;20023;-67